createdAt,value
2019-01-05T00:00:18.512Z,76.91
2019-01-05T00:03:08.228Z,76.98
2019-01-05T00:06:09.395Z,76.98
2019-01-05T00:09:07.594Z,76.93
2019-01-05T00:12:14.751Z,76.89
2019-01-05T00:14:59.855Z,76.95
2019-01-05T00:17:46.932Z,76.87
2019-01-05T00:20:35.386Z,76.84
2019-01-05T00:23:25.483Z,76.86
2019-01-05T00:26:24.504Z,76.83
2019-01-05T00:29:12.409Z,76.84
2019-01-05T00:32:29.041Z,76.71
2019-01-05T00:35:23.547Z,76.68
2019-01-05T00:38:08.976Z,76.71
2019-01-05T00:40:57.235Z,76.63
2019-01-05T00:43:45.026Z,76.55
2019-01-05T00:46:32.520Z,76.48
2019-01-05T00:49:25.027Z,76.44
2019-01-05T00:52:16.557Z,76.47
2019-01-05T00:55:24.259Z,76.46
2019-01-05T00:58:11.910Z,76.44
2019-01-05T01:01:06.693Z,76.48
2019-01-05T01:03:54.321Z,76.46
2019-01-05T01:06:49.071Z,76.51
2019-01-05T01:09:33.091Z,76.43
2019-01-05T01:12:27.048Z,76.47
2019-01-05T01:15:31.225Z,76.39
2019-01-05T01:18:26.875Z,76.37
2019-01-05T01:21:09.569Z,76.43
2019-01-05T01:24:04.991Z,76.44
2019-01-05T01:26:44.362Z,76.45
2019-01-05T01:29:42.450Z,76.44
2019-01-05T01:32:46.030Z,76.30
2019-01-05T01:35:44.993Z,76.20
2019-01-05T01:39:05.604Z,75.92
2019-01-05T01:41:58.061Z,75.84
2019-01-05T01:44:53.689Z,75.89
2019-01-05T01:47:54.362Z,76.08
2019-01-05T01:50:41.882Z,76.09
2019-01-05T01:53:30.644Z,75.99
2019-01-05T01:56:27.166Z,76.25
2019-01-05T01:59:18.228Z,76.29
2019-01-05T02:02:06.091Z,76.27
2019-01-05T02:04:55.454Z,76.42
2019-01-05T02:07:37.873Z,76.46
2019-01-05T02:10:24.970Z,76.41
2019-01-05T02:13:30.994Z,76.42
2019-01-05T02:16:31.706Z,76.39
2019-01-05T02:19:22.627Z,76.52
2019-01-05T02:22:51.960Z,76.47
2019-01-05T02:26:25.672Z,76.48
2019-01-05T02:29:53.139Z,76.52
2019-01-05T02:33:05.487Z,76.60
2019-01-05T02:36:13.990Z,76.71
2019-01-05T02:39:42.734Z,76.73
2019-01-05T02:43:05.594Z,76.71
2019-01-05T02:46:41.281Z,76.75
2019-01-05T02:50:02.822Z,76.75
2019-01-05T02:53:04.971Z,76.76
2019-01-05T02:56:44.519Z,76.74
2019-01-05T03:00:05.086Z,76.73
2019-01-05T03:03:40.054Z,76.68
2019-01-05T03:07:02.960Z,76.63
2019-01-05T03:10:19.819Z,76.63
2019-01-05T03:13:38.147Z,76.16
2019-01-05T03:17:03.572Z,76.13
2019-01-05T03:20:35.022Z,76.11
2019-01-05T03:23:49.332Z,76.14
2019-01-05T03:27:12.035Z,76.41
2019-01-05T03:30:25.017Z,76.44
2019-01-05T03:33:44.710Z,76.51
2019-01-05T03:37:10.919Z,76.67
2019-01-05T03:40:30.705Z,76.82
2019-01-05T03:43:35.491Z,76.90
2019-01-05T03:47:00.084Z,76.89
2019-01-05T03:50:04.591Z,76.93
2019-01-05T03:53:34.122Z,76.97
2019-01-05T03:56:42.009Z,76.96
2019-01-05T04:00:10.138Z,76.98
2019-01-05T04:03:59.004Z,77.00
2019-01-05T04:07:09.582Z,76.99
2019-01-05T04:10:22.316Z,76.96
2019-01-05T04:13:43.423Z,77.07
2019-01-05T04:17:07.592Z,77.09
2019-01-05T04:20:09.755Z,77.11
2019-01-05T04:23:28.408Z,77.12
2019-01-05T04:26:58.525Z,77.14
2019-01-05T04:30:41.556Z,77.08
2019-01-05T04:34:29.503Z,77.14
2019-01-05T04:37:54.628Z,77.14
2019-01-05T04:41:22.154Z,77.18
2019-01-05T04:44:39.704Z,77.07
2019-01-05T04:48:14.829Z,77.09
2019-01-05T04:51:49.344Z,77.08
2019-01-05T04:55:56.102Z,77.13
2019-01-05T04:59:13.287Z,77.17
2019-01-05T05:02:48.937Z,77.18
2019-01-05T05:05:52.862Z,77.11
2019-01-05T05:09:20.970Z,77.18
2019-01-05T05:12:49.572Z,77.13
2019-01-05T05:16:21.079Z,77.27
2019-01-05T05:19:26.768Z,77.29
2019-01-05T05:22:46.621Z,77.35
2019-01-05T05:26:13.778Z,77.39
2019-01-05T05:29:58.026Z,77.34
2019-01-05T05:33:42.707Z,77.32
2019-01-05T05:36:59.514Z,77.21
2019-01-05T05:40:41.291Z,77.10
2019-01-05T05:44:25.690Z,77.05
2019-01-05T05:47:58.098Z,76.84
2019-01-05T05:51:37.549Z,76.91
2019-01-05T05:54:49.928Z,77.00
2019-01-05T05:58:23.114Z,76.93
2019-01-05T06:02:01.740Z,76.89
2019-01-05T06:05:28.502Z,77.02
2019-01-05T06:08:50.701Z,76.86
2019-01-05T06:12:00.983Z,76.88
2019-01-05T06:15:34.183Z,76.87
2019-01-05T06:19:12.330Z,76.80
2019-01-05T06:22:22.747Z,76.84
2019-01-05T06:25:43.758Z,76.73
2019-01-05T06:29:06.341Z,76.77
2019-01-05T06:32:34.124Z,76.75
2019-01-05T06:36:03.941Z,76.74
2019-01-05T06:39:38.039Z,76.68
2019-01-05T06:42:55.170Z,76.67
2019-01-05T06:46:21.204Z,76.68
2019-01-05T06:49:48.470Z,76.83
2019-01-05T06:53:11.261Z,76.86
2019-01-05T06:56:37.130Z,76.91
2019-01-05T07:00:05.037Z,76.94
2019-01-05T07:03:41.663Z,77.08
2019-01-05T07:07:21.986Z,77.11
2019-01-05T07:11:08.562Z,77.08
2019-01-05T07:14:45.249Z,77.06
2019-01-05T07:18:29.200Z,77.11
2019-01-05T07:21:46.723Z,77.09
2019-01-05T07:25:36.473Z,77.01
2019-01-05T07:29:35.274Z,77.02
2019-01-05T07:33:06.781Z,76.99
2019-01-05T07:36:46.543Z,77.03
2019-01-05T07:40:16.729Z,76.98
2019-01-05T07:43:44.188Z,77.09
2019-01-05T07:46:57.379Z,77.04
2019-01-05T07:50:27.761Z,76.91
2019-01-05T07:54:11.922Z,76.80
2019-01-05T07:57:53.662Z,76.76
2019-01-05T08:01:25.281Z,76.59
2019-01-05T08:05:03.527Z,76.71
2019-01-05T08:09:01.454Z,76.68
2019-01-05T08:12:22.872Z,76.44
2019-01-05T08:15:42.831Z,76.39
2019-01-05T08:19:13.896Z,76.30
2019-01-05T08:22:35.659Z,76.35
2019-01-05T08:26:00.085Z,76.46
2019-01-05T08:29:26.399Z,76.28
2019-01-05T08:32:45.005Z,76.07
2019-01-05T08:36:01.295Z,75.75
2019-01-05T08:39:30.246Z,75.64
2019-01-05T08:43:06.433Z,75.58
2019-01-05T08:46:37.266Z,75.51
2019-01-05T08:50:04.251Z,75.39
2019-01-05T08:53:32.507Z,75.45
2019-01-05T08:56:56.266Z,75.34
2019-01-05T09:00:05.538Z,75.21
2019-01-05T09:03:43.134Z,75.44
2019-01-05T09:07:08.578Z,75.34
2019-01-05T09:10:49.049Z,75.21
2019-01-05T09:14:14.417Z,74.85
2019-01-05T09:17:42.808Z,74.75
2019-01-05T09:21:25.555Z,74.63
2019-01-05T09:25:13.269Z,74.74
2019-01-05T09:28:41.676Z,74.34
2019-01-05T09:32:24.570Z,74.55
2019-01-05T09:35:35.991Z,74.60
2019-01-05T09:38:44.185Z,74.48
2019-01-05T09:42:06.531Z,74.20
2019-01-05T09:45:48.778Z,74.54
2019-01-05T09:49:17.163Z,74.54
2019-01-05T09:52:29.455Z,74.43
2019-01-05T09:56:05.964Z,74.48
2019-01-05T09:59:29.912Z,74.41
2019-01-05T10:02:48.076Z,74.59
2019-01-05T10:06:10.691Z,74.32
2019-01-05T10:09:28.358Z,74.28
2019-01-05T10:12:56.092Z,73.89
2019-01-05T10:16:28.181Z,73.92
2019-01-05T10:19:52.870Z,73.67
2019-01-05T10:23:05.231Z,73.43
2019-01-05T10:26:48.131Z,73.51
2019-01-05T10:30:36.095Z,73.79
2019-01-05T10:34:03.301Z,73.80
2019-01-05T10:37:11.955Z,73.85
2019-01-05T10:40:32.097Z,73.98
2019-01-05T10:44:27.831Z,74.16
2019-01-05T10:48:09.290Z,74.01
2019-01-05T10:51:39.852Z,74.32
2019-01-05T10:55:00.281Z,74.35
2019-01-05T10:58:44.783Z,74.36
2019-01-05T11:02:26.541Z,74.22
2019-01-05T11:05:30.091Z,73.94
2019-01-05T11:08:56.116Z,73.70
2019-01-05T11:12:41.661Z,73.88
2019-01-05T11:15:49.312Z,73.73
2019-01-05T11:19:18.721Z,73.55
2019-01-05T11:22:36.333Z,73.83
2019-01-05T11:25:53.191Z,73.75
2019-01-05T11:29:47.705Z,73.87
2019-01-05T11:33:18.262Z,73.62
2019-01-05T11:36:53.001Z,73.64
2019-01-05T11:40:32.498Z,73.90
2019-01-05T11:43:53.932Z,73.83
2019-01-05T11:47:13.142Z,73.58
2019-01-05T11:50:45.920Z,73.49
2019-01-05T11:54:17.710Z,73.60
2019-01-05T11:57:58.929Z,73.69
2019-01-05T12:01:24.180Z,73.64
2019-01-05T12:04:59.878Z,73.38
2019-01-05T12:08:30.504Z,73.48
2019-01-05T12:12:02.681Z,73.57
2019-01-05T12:15:32.505Z,73.75
2019-01-05T12:19:19.723Z,73.42
2019-01-05T12:22:47.231Z,73.23
2019-01-05T12:26:12.427Z,73.48
2019-01-05T12:29:31.562Z,73.46
2019-01-05T12:33:11.407Z,73.61
2019-01-05T12:36:31.557Z,73.35
2019-01-05T12:39:46.866Z,73.57
2019-01-05T12:43:04.213Z,73.34
2019-01-05T12:46:40.067Z,73.74
2019-01-05T12:50:04.558Z,73.50
2019-01-05T12:53:42.503Z,73.85
2019-01-05T12:57:08.335Z,73.75
2019-01-05T13:00:59.114Z,73.79
2019-01-05T13:04:33.313Z,73.57
2019-01-05T13:08:06.014Z,73.89
2019-01-05T13:11:34.191Z,73.43
2019-01-05T13:15:01.526Z,73.55
2019-01-05T13:18:28.811Z,73.60
2019-01-05T13:21:46.710Z,73.71
2019-01-05T13:25:30.561Z,73.85
2019-01-05T13:28:56.933Z,73.70
2019-01-05T13:32:05.343Z,73.53
2019-01-05T13:35:41.895Z,73.41
2019-01-05T13:39:11.373Z,73.40
2019-01-05T13:42:43.117Z,73.14
2019-01-05T13:46:15.879Z,72.81
2019-01-05T13:50:02.336Z,72.98
2019-01-05T13:53:03.507Z,73.19
2019-01-05T13:55:58.782Z,73.16
2019-01-05T13:58:46.721Z,72.90
2019-01-05T14:01:39.431Z,72.91
2019-01-05T14:04:37.929Z,72.94
2019-01-05T14:07:25.249Z,73.26
2019-01-05T14:10:11.770Z,73.27
2019-01-05T14:13:03.453Z,73.17
2019-01-05T14:15:51.044Z,73.01
2019-01-05T14:18:39.977Z,72.92
2019-01-05T14:21:37.499Z,72.84
2019-01-05T14:24:27.382Z,72.71
2019-01-05T14:27:22.269Z,72.76
2019-01-05T14:30:08.447Z,72.85
2019-01-05T14:32:55.588Z,72.88
2019-01-05T14:35:50.820Z,73.16
2019-01-05T14:38:46.758Z,73.08
2019-01-05T14:41:27.575Z,72.88
2019-01-05T14:44:16.383Z,73.03
2019-01-05T14:47:04.661Z,73.07
2019-01-05T14:50:02.030Z,73.19
2019-01-05T14:52:53.647Z,73.19
2019-01-05T14:55:46.336Z,73.29
2019-01-05T14:58:33.410Z,73.56
2019-01-05T15:01:26.006Z,73.76
2019-01-05T15:04:13.414Z,73.85
2019-01-05T15:07:10.897Z,73.75
2019-01-05T15:10:04.528Z,73.75
2019-01-05T15:12:56.200Z,73.70
2019-01-05T15:15:36.551Z,73.82
2019-01-05T15:18:32.033Z,74.01
2019-01-05T15:21:19.299Z,74.08
2019-01-05T15:24:02.541Z,74.07
2019-01-05T15:27:00.350Z,74.17
2019-01-05T15:30:04.243Z,73.85
2019-01-05T15:32:58.658Z,73.95
2019-01-05T15:36:02.792Z,73.98
2019-01-05T15:38:50.412Z,73.78
2019-01-05T15:41:38.993Z,74.06
2019-01-05T15:44:26.097Z,73.97
2019-01-05T15:47:18.458Z,73.68
2019-01-05T15:50:06.368Z,73.93
2019-01-05T15:52:53.967Z,73.98
2019-01-05T15:55:38.696Z,73.83
2019-01-05T15:58:26.284Z,74.13
2019-01-05T16:01:14.922Z,74.10
2019-01-05T16:04:12.882Z,74.12
2019-01-05T16:06:59.512Z,74.14
2019-01-05T16:09:48.325Z,74.04
2019-01-05T16:12:52.224Z,74.17
2019-01-05T16:15:39.242Z,74.08
2019-01-05T16:18:40.057Z,74.22
2019-01-05T16:21:27.165Z,74.35
2019-01-05T16:24:13.214Z,74.52
2019-01-05T16:27:00.225Z,74.61
2019-01-05T16:29:54.966Z,74.52
2019-01-05T16:32:42.594Z,74.84
2019-01-05T16:35:29.716Z,74.83
2019-01-05T16:38:33.432Z,74.74
2019-01-05T16:41:34.008Z,74.75
2019-01-05T16:44:33.567Z,75.11
2019-01-05T16:47:20.937Z,75.17
2019-01-05T16:50:12.633Z,75.14
2019-01-05T16:52:59.932Z,75.21
2019-01-05T16:55:47.539Z,75.06
2019-01-05T16:58:35.495Z,74.82
2019-01-05T17:01:29.380Z,74.72
2019-01-05T17:04:16.809Z,74.55
2019-01-05T17:07:04.898Z,74.66
2019-01-05T17:10:02.833Z,74.65
2019-01-05T17:12:50.911Z,74.70
2019-01-05T17:15:38.087Z,74.60
2019-01-05T17:18:26.953Z,74.72
2019-01-05T17:21:24.318Z,74.62
2019-01-05T17:24:16.071Z,74.66
2019-01-05T17:27:06.231Z,74.75
2019-01-05T17:29:53.686Z,74.60
2019-01-05T17:32:50.995Z,74.42
2019-01-05T17:35:48.668Z,74.65
2019-01-05T17:38:36.078Z,74.66
2019-01-05T17:41:20.080Z,74.84
2019-01-05T17:44:02.168Z,74.78
2019-01-05T17:46:39.318Z,74.89
2019-01-05T17:49:27.037Z,74.94
2019-01-05T17:52:12.939Z,74.93
2019-01-05T17:55:07.269Z,74.76
2019-01-05T17:58:04.694Z,74.64
2019-01-05T18:00:51.802Z,74.40
2019-01-05T18:03:39.273Z,74.43
2019-01-05T18:06:27.514Z,74.30
2019-01-05T18:09:15.593Z,74.05
2019-01-05T18:12:10.066Z,73.92
2019-01-05T18:14:58.119Z,74.10
2019-01-05T18:17:45.180Z,74.12
2019-01-05T18:20:24.275Z,74.16
2019-01-05T18:23:09.412Z,74.07
2019-01-05T18:25:55.651Z,74.21
2019-01-05T18:28:42.929Z,74.31
2019-01-05T18:31:48.650Z,74.54
2019-01-05T18:34:31.583Z,74.70
2019-01-05T18:37:27.945Z,74.68
2019-01-05T18:40:15.149Z,74.77
2019-01-05T18:43:13.194Z,74.82
2019-01-05T18:45:56.106Z,74.81
2019-01-05T18:48:38.223Z,74.72
2019-01-05T18:51:36.180Z,74.80
2019-01-05T18:54:23.907Z,74.99
2019-01-05T18:57:11.042Z,74.84
2019-01-05T19:00:10.297Z,74.90
2019-01-05T19:02:57.796Z,74.87
2019-01-05T19:05:49.207Z,74.89
2019-01-05T19:08:38.608Z,74.96
2019-01-05T19:11:41.106Z,74.91
2019-01-05T19:14:28.626Z,74.84
2019-01-05T19:17:17.765Z,75.00
2019-01-05T19:20:05.080Z,74.75
2019-01-05T19:23:05.617Z,74.77
2019-01-05T19:25:52.526Z,74.92
2019-01-05T19:28:51.016Z,75.15
2019-01-05T19:31:42.930Z,75.27
2019-01-05T19:34:34.645Z,75.17
2019-01-05T19:37:25.800Z,75.09
2019-01-05T19:40:32.352Z,74.88
2019-01-05T19:43:24.115Z,74.77
2019-01-05T19:46:11.495Z,74.77
2019-01-05T19:49:07.465Z,74.88
2019-01-05T19:51:58.972Z,75.12
2019-01-05T19:54:46.461Z,75.09
2019-01-05T19:57:53.314Z,75.10
2019-01-05T20:00:47.599Z,75.11
2019-01-05T20:03:45.485Z,75.06
2019-01-05T20:06:26.399Z,75.20
2019-01-05T20:09:24.731Z,75.26
2019-01-05T20:12:13.499Z,75.22
2019-01-05T20:15:00.949Z,75.11
2019-01-05T20:17:52.840Z,74.86
2019-01-05T20:20:52.087Z,74.80
2019-01-05T20:23:43.443Z,75.11
2019-01-05T20:26:32.053Z,75.25
2019-01-05T20:29:25.072Z,75.22
2019-01-05T20:32:13.674Z,75.24
2019-01-05T20:35:00.034Z,75.13
2019-01-05T20:37:46.619Z,75.21
2019-01-05T20:40:47.739Z,75.42
2019-01-05T20:43:45.295Z,75.54
2019-01-05T20:46:52.074Z,75.55
2019-01-05T20:49:42.555Z,75.53
2019-01-05T20:52:29.792Z,75.32
2019-01-05T20:55:25.235Z,75.29
2019-01-05T20:58:29.178Z,75.19
2019-01-05T21:01:19.401Z,75.23
2019-01-05T21:04:20.041Z,75.04
2019-01-05T21:07:08.928Z,74.96
2019-01-05T21:09:49.263Z,74.75
2019-01-05T21:12:41.017Z,74.77
2019-01-05T21:15:21.486Z,74.80
2019-01-05T21:18:23.012Z,74.76
2019-01-05T21:21:28.573Z,74.70
2019-01-05T21:24:20.935Z,74.65
2019-01-05T21:27:09.671Z,74.56
2019-01-05T21:30:02.710Z,74.77
2019-01-05T21:33:06.463Z,74.73
2019-01-05T21:35:53.494Z,74.50
2019-01-05T21:38:43.642Z,74.33
2019-01-05T21:41:32.257Z,74.37
2019-01-05T21:44:20.871Z,74.35
2019-01-05T21:47:24.670Z,74.35
2019-01-05T21:50:06.552Z,74.41
2019-01-05T21:53:03.731Z,74.40
2019-01-05T21:55:58.678Z,74.39
2019-01-05T21:58:50.024Z,74.43
2019-01-05T22:01:35.440Z,74.30
2019-01-05T22:04:22.760Z,74.24
2019-01-05T22:07:10.071Z,74.27
2019-01-05T22:10:14.551Z,74.42
2019-01-05T22:13:03.092Z,74.28
2019-01-05T22:16:05.502Z,74.34
2019-01-05T22:19:09.315Z,74.21
2019-01-05T22:22:07.007Z,74.35
2019-01-05T22:24:48.872Z,74.74
2019-01-05T22:27:38.174Z,74.78
2019-01-05T22:30:30.853Z,74.90
2019-01-05T22:33:22.754Z,74.98
2019-01-05T22:36:26.633Z,74.98
2019-01-05T22:39:18.127Z,75.02
2019-01-05T22:42:15.883Z,75.07
2019-01-05T22:45:06.622Z,74.99
2019-01-05T22:47:54.032Z,75.05
2019-01-05T22:50:48.296Z,74.94
2019-01-05T22:53:40.289Z,75.25
2019-01-05T22:56:44.373Z,75.31
2019-01-05T22:59:31.740Z,75.21
2019-01-05T23:02:21.285Z,75.14
2019-01-05T23:05:13.092Z,75.14
2019-01-05T23:08:10.554Z,75.15
2019-01-05T23:10:57.597Z,75.23
2019-01-05T23:13:46.155Z,75.20
2019-01-05T23:16:46.906Z,75.14
2019-01-05T23:19:35.513Z,75.08
2019-01-05T23:22:33.109Z,75.21
2019-01-05T23:25:18.691Z,75.19
2019-01-05T23:28:25.544Z,75.26
2019-01-05T23:31:32.187Z,75.24
2019-01-05T23:34:19.513Z,75.33
2019-01-05T23:37:06.394Z,75.22
2019-01-05T23:40:10.436Z,75.37
2019-01-05T23:42:51.161Z,75.30
2019-01-05T23:45:40.900Z,75.31
2019-01-05T23:48:28.429Z,75.10
2019-01-05T23:51:15.427Z,75.08
2019-01-05T23:54:03.975Z,75.23
2019-01-05T23:56:51.051Z,75.16
2019-01-05T23:59:38.191Z,75.22
